Time;durP1;ratioP1;P1;durP2;ratioP2;P2;SDS_P1;SDS_P2;PMS_P1;PMS_P2;Temp;Humidity;BMP_temperature;BMP_pressure;BME280_temperature;BME280_humidity;BME280_pressure;Samples;Min_cycle;Max_cycle;Signal;HPM_P1;HPM_P2
2021/09/17 00:01:16;;;;;;;4.28;2.42;;;19.20;99.90;;;;;;4994268;28;20209;-81
2021/09/17 00:03:43;;;;;;;3.83;3.53;;;19.20;99.90;;;;;;4994533;28;20216;-80
2021/09/17 00:06:10;;;;;;;4.30;3.13;;;19.20;99.90;;;;;;4994634;28;20213;-80
2021/09/17 00:08:38;;;;;;;4.60;3.40;;;19.20;99.90;;;;;;4994485;28;20205;-77
2021/09/17 00:11:06;;;;;;;5.88;3.20;;;19.20;99.90;;;;;;4994299;28;20205;-75
2021/09/17 00:13:33;;;;;;;3.55;3.25;;;19.20;99.90;;;;;;4994517;28;20279;-82
2021/09/17 00:16:00;;;;;;;4.00;3.15;;;19.20;99.90;;;;;;4994167;28;20208;-83
2021/09/17 00:18:29;;;;;;;5.97;3.00;;;19.10;99.90;;;;;;4994909;28;20216;-70
2021/09/17 00:20:56;;;;;;;5.25;3.17;;;19.10;99.90;;;;;;4994508;28;20586;-77
2021/09/17 00:23:23;;;;;;;4.32;3.33;;;19.10;99.90;;;;;;4994078;28;20216;-78
2021/09/17 00:25:51;;;;;;;4.28;2.97;;;19.10;99.90;;;;;;4994550;28;20220;-79
2021/09/17 00:28:19;;;;;;;4.60;3.35;;;19.10;99.90;;;;;;4994546;28;20212;-71
2021/09/17 00:30:46;;;;;;;6.03;3.67;;;19.20;99.90;;;;;;4994445;28;20227;-71
2021/09/17 00:33:13;;;;;;;3.17;2.88;;;19.30;99.90;;;;;;4994109;28;20236;-72
2021/09/17 00:35:42;;;;;;;6.07;3.47;;;19.20;99.90;;;;;;4994168;28;20209;-72
2021/09/17 00:38:09;;;;;;;3.65;3.17;;;19.20;99.90;;;;;;4993474;28;20586;-73
2021/09/17 00:40:36;;;;;;;6.63;2.88;;;19.20;99.90;;;;;;4994135;28;20840;-78
2021/09/17 00:43:03;;;;;;;4.65;3.83;;;19.20;99.90;;;;;;4994105;28;20212;-77
2021/09/17 00:45:30;;;;;;;3.90;2.85;;;19.20;99.90;;;;;;4994294;28;20220;-81
2021/09/17 00:47:57;;;;;;;4.97;3.25;;;19.20;99.90;;;;;;4993924;28;20217;-76
2021/09/17 00:50:25;;;;;;;3.80;3.25;;;19.10;99.90;;;;;;4993885;28;20679;-72
2021/09/17 00:52:53;;;;;;;5.45;3.60;;;19.10;99.90;;;;;;4993041;28;20244;-72
2021/09/17 00:55:21;;;;;;;4.25;3.38;;;19.10;99.90;;;;;;4993816;28;20208;-73
2021/09/17 00:57:48;;;;;;;3.92;3.17;;;19.10;99.90;;;;;;4989870;28;20221;-78
2021/09/17 01:00:16;;;;;;;4.55;3.72;;;19.10;99.90;;;;;;4984627;28;20213;-78
2021/09/17 01:02:44;;;;;;;5.85;3.28;;;19.00;99.90;;;;;;4994097;28;20213;-78
2021/09/17 01:05:12;;;;;;;4.28;2.95;;;19.10;99.90;;;;;;4993341;28;20216;-73
2021/09/17 01:07:39;;;;;;;4.50;3.22;;;19.10;99.90;;;;;;4993547;28;20213;-79
2021/09/17 01:10:09;;;;;;;4.93;3.10;;;19.10;99.90;;;;;;4993050;28;20216;-74
2021/09/17 01:12:37;;;;;;;5.53;3.85;;;19.10;99.90;;;;;;4993401;28;20236;-73
2021/09/17 01:15:05;;;;;;;5.40;2.83;;;19.00;99.90;;;;;;4992945;28;20255;-73
2021/09/17 01:17:33;;;;;;;5.68;3.40;;;19.00;99.90;;;;;;4993772;28;20205;-73
2021/09/17 01:20:00;;;;;;;5.53;3.40;;;19.00;99.90;;;;;;4993070;28;20225;-80
2021/09/17 01:22:29;;;;;;;5.82;3.42;;;19.00;99.90;;;;;;4993263;28;20209;-72
2021/09/17 01:24:56;;;;;;;5.45;2.97;;;18.90;99.90;;;;;;4992788;28;20213;-72
2021/09/17 01:27:24;;;;;;;4.50;3.40;;;18.90;99.90;;;;;;4980064;28;20211;-72
2021/09/17 01:29:51;;;;;;;4.80;3.15;;;19.00;99.90;;;;;;4993385;28;20244;-73
2021/09/17 01:32:19;;;;;;;4.28;3.25;;;19.00;99.90;;;;;;4993227;28;20684;-71
2021/09/17 01:34:46;;;;;;;5.32;3.70;;;19.00;99.90;;;;;;4993486;28;20241;-78
2021/09/17 01:37:13;;;;;;;3.75;3.45;;;19.00;99.90;;;;;;4992247;28;20205;-80
2021/09/17 01:39:42;;;;;;;5.60;3.40;;;19.00;99.90;;;;;;4993090;28;20558;-72
2021/09/17 01:42:09;;;;;;;10.25;3.88;;;18.90;99.90;;;;;;4992721;28;20217;-80
2021/09/17 01:44:37;;;;;;;5.18;3.15;;;18.90;99.90;;;;;;4993242;28;20224;-76
2021/09/17 01:47:05;;;;;;;5.55;3.13;;;18.90;99.90;;;;;;4992639;28;20240;-80
2021/09/17 01:49:33;;;;;;;4.80;3.58;;;18.90;99.90;;;;;;4979600;28;20233;-77
2021/09/17 01:52:00;;;;;;;4.10;3.08;;;19.00;99.90;;;;;;4992213;28;20229;-74
2021/09/17 01:54:27;;;;;;;4.72;3.25;;;19.00;99.90;;;;;;4989350;28;20213;-75
2021/09/17 01:56:56;;;;;;;3.97;3.58;;;18.90;99.90;;;;;;4989189;28;20209;-70
2021/09/17 01:59:23;;;;;;;6.30;3.67;;;19.00;99.90;;;;;;4993010;28;20208;-84
2021/09/17 02:01:50;;;;;;;5.22;2.90;;;18.90;99.90;;;;;;4992774;28;20208;-78
2021/09/17 02:04:19;;;;;;;4.97;3.35;;;18.90;99.90;;;;;;4992844;28;20335;-71
2021/09/17 02:06:46;;;;;;;6.03;3.28;;;18.90;99.90;;;;;;4992757;28;20213;-73
2021/09/17 02:09:13;;;;;;;4.35;3.42;;;18.90;99.90;;;;;;4992466;28;20243;-79
2021/09/17 02:11:40;;;;;;;3.42;3.13;;;18.80;99.90;;;;;;4992463;28;20212;-71
2021/09/17 02:14:09;;;;;;;6.05;4.50;;;18.80;99.90;;;;;;4991582;28;20228;-74
2021/09/17 02:16:37;;;;;;;4.70;3.58;;;18.80;99.90;;;;;;4992389;28;20212;-74
2021/09/17 02:19:04;;;;;;;5.68;4.30;;;18.80;99.90;;;;;;4991841;28;20205;-72
2021/09/17 02:21:31;;;;;;;6.13;3.53;;;18.70;99.90;;;;;;4991700;28;20220;-76
2021/09/17 02:23:58;;;;;;;4.78;3.53;;;18.70;99.90;;;;;;4991638;28;20711;-80
2021/09/17 02:26:25;;;;;;;3.67;3.40;;;18.60;99.90;;;;;;4992379;28;20211;-77
2021/09/17 02:28:52;;;;;;;7.15;3.53;;;18.50;99.90;;;;;;4991350;28;20207;-71
2021/09/17 02:31:21;;;;;;;6.78;3.35;;;18.50;99.90;;;;;;4992258;28;20212;-72
2021/09/17 02:33:48;;;;;;;4.40;3.25;;;18.50;99.90;;;;;;4992298;28;20239;-74
2021/09/17 02:36:15;;;;;;;5.75;3.70;;;18.50;99.90;;;;;;4991741;28;20209;-74
2021/09/17 02:38:42;;;;;;;4.18;3.80;;;18.50;99.90;;;;;;4992170;28;20205;-76
2021/09/17 02:41:09;;;;;;;5.18;3.45;;;18.40;99.90;;;;;;4991586;28;20220;-84
2021/09/17 02:43:36;;;;;;;5.70;3.53;;;18.40;99.90;;;;;;4992250;28;20205;-75
2021/09/17 02:46:03;;;;;;;4.40;3.72;;;18.30;99.90;;;;;;4991339;28;20209;-82
2021/09/17 02:48:32;;;;;;;4.53;3.88;;;18.30;99.90;;;;;;4991602;28;20581;-70
2021/09/17 02:50:59;;;;;;;5.15;2.60;;;18.30;99.90;;;;;;4991457;28;20212;-80
2021/09/17 02:53:26;;;;;;;5.13;3.60;;;18.30;99.90;;;;;;4991501;28;20233;-72
2021/09/17 02:55:53;;;;;;;4.53;3.83;;;18.30;99.90;;;;;;4991377;28;20204;-69
2021/09/17 02:58:20;;;;;;;7.20;4.25;;;18.30;99.90;;;;;;4991629;28;20220;-77
2021/09/17 03:00:47;;;;;;;6.05;4.00;;;18.30;99.90;;;;;;4991744;28;20213;-75
2021/09/17 03:03:16;;;;;;;7.10;4.00;;;18.30;99.90;;;;;;4991144;28;20204;-75
2021/09/17 03:05:45;;;;;;;3.80;3.47;;;18.40;99.90;;;;;;4991833;28;20200;-73
2021/09/17 03:08:12;;;;;;;5.07;3.58;;;18.40;99.90;;;;;;4990897;28;20851;-81
2021/09/17 03:10:39;;;;;;;3.95;3.55;;;18.30;99.90;;;;;;4991683;28;20208;-70
2021/09/17 03:13:06;;;;;;;6.18;3.35;;;18.30;99.90;;;;;;4990831;28;20235;-73
2021/09/17 03:15:33;;;;;;;4.70;3.35;;;18.30;99.90;;;;;;4991261;28;20205;-80
2021/09/17 03:18:01;;;;;;;4.72;4.05;;;18.30;99.90;;;;;;4990735;28;20216;-79
2021/09/17 03:20:28;;;;;;;5.30;4.13;;;18.30;99.90;;;;;;4991142;28;20668;-71
2021/09/17 03:22:56;;;;;;;4.88;3.95;;;18.40;99.90;;;;;;4991226;28;20216;-80
2021/09/17 03:25:23;;;;;;;5.15;3.03;;;18.40;99.90;;;;;;4991167;28;20228;-71
2021/09/17 03:27:50;;;;;;;4.20;3.55;;;18.40;99.90;;;;;;4991052;28;20680;-70
2021/09/17 03:30:17;;;;;;;5.10;4.03;;;18.40;99.90;;;;;;4991240;28;20212;-71
2021/09/17 03:32:44;;;;;;;5.32;3.30;;;18.30;99.90;;;;;;4991246;28;20209;-76
2021/09/17 03:35:12;;;;;;;6.25;3.75;;;18.30;99.90;;;;;;4990612;28;21121;-76
2021/09/17 03:37:39;;;;;;;3.63;3.28;;;18.40;99.90;;;;;;4990777;28;20209;-76
2021/09/17 03:40:09;;;;;;;4.65;3.92;;;18.40;99.90;;;;;;4990969;28;20204;-81
2021/09/17 03:42:36;;;;;;;4.68;3.60;;;18.40;99.90;;;;;;4991079;28;20200;-74
2021/09/17 03:45:04;;;;;;;4.00;3.15;;;18.40;99.90;;;;;;4990783;28;20260;-77
2021/09/17 03:47:31;;;;;;;6.75;3.90;;;18.40;99.90;;;;;;4990726;28;20220;-70
2021/09/17 03:49:58;;;;;;;5.10;3.88;;;18.30;99.90;;;;;;4990646;28;20213;-78
2021/09/17 03:52:25;;;;;;;3.47;3.17;;;18.30;99.90;;;;;;4990758;28;20213;-74
2021/09/17 03:54:52;;;;;;;4.68;4.22;;;18.30;99.90;;;;;;4990612;28;20236;-70
2021/09/17 03:57:21;;;;;;;5.03;4.32;;;18.20;99.90;;;;;;4991345;28;20217;-73
2021/09/17 03:59:48;;;;;;;4.15;3.80;;;18.10;99.90;;;;;;4991391;28;20216;-75
2021/09/17 04:02:15;;;;;;;3.97;3.60;;;18.10;99.90;;;;;;4990512;28;20706;-76
2021/09/17 04:04:42;;;;;;;6.68;4.07;;;18.00;99.90;;;;;;4990644;28;20711;-73
2021/09/17 04:07:09;;;;;;;5.47;3.85;;;18.10;99.90;;;;;;4990559;28;20213;-73
2021/09/17 04:09:36;;;;;;;5.50;4.90;;;18.00;99.90;;;;;;4991015;28;20216;-77
2021/09/17 04:12:04;;;;;;;4.43;4.03;;;18.00;99.90;;;;;;4990565;28;20212;-74
2021/09/17 04:14:32;;;;;;;6.55;3.85;;;17.90;99.90;;;;;;4990910;28;20243;-75
2021/09/17 04:16:59;;;;;;;5.95;3.88;;;18.00;99.90;;;;;;4990121;28;20209;-77
2021/09/17 04:19:26;;;;;;;7.00;4.05;;;17.90;99.90;;;;;;4990972;28;20235;-73
2021/09/17 04:21:53;;;;;;;6.13;4.15;;;17.90;99.90;;;;;;4989995;28;20695;-78
2021/09/17 04:24:20;;;;;;;5.07;4.68;;;17.90;99.90;;;;;;4990764;28;20216;-75
2021/09/17 04:26:47;;;;;;;5.20;4.07;;;17.90;99.90;;;;;;4991097;28;20212;-72
2021/09/17 04:29:15;;;;;;;5.60;4.22;;;17.90;99.90;;;;;;4990540;28;20688;-79
2021/09/17 04:31:43;;;;;;;6.55;4.30;;;17.90;99.90;;;;;;4990428;28;20585;-78
2021/09/17 04:34:10;;;;;;;4.97;4.57;;;18.00;99.90;;;;;;4990532;28;20237;-75
2021/09/17 04:36:37;;;;;;;6.25;4.43;;;18.00;99.90;;;;;;4990546;28;20220;-73
2021/09/17 04:39:04;;;;;;;6.93;4.07;;;18.00;99.90;;;;;;4989968;28;20205;-76
2021/09/17 04:41:31;;;;;;;4.93;3.97;;;17.90;99.90;;;;;;4990901;28;20217;-80
2021/09/17 04:43:58;;;;;;;7.82;4.38;;;18.00;99.90;;;;;;4989961;28;20209;-77
2021/09/17 04:46:25;;;;;;;7.03;4.40;;;18.10;99.90;;;;;;4993212;28;20201;-77
2021/09/17 04:48:54;;;;;;;6.65;4.50;;;18.20;99.90;;;;;;4993815;28;20209;-74
2021/09/17 04:51:21;;;;;;;8.40;4.85;;;18.30;99.90;;;;;;4993819;28;20574;-73
2021/09/17 04:53:48;;;;;;;4.93;4.35;;;18.30;99.90;;;;;;4993932;28;20232;-76
2021/09/17 04:56:15;;;;;;;4.63;4.22;;;18.20;99.90;;;;;;4993503;28;20205;-74
2021/09/17 04:58:42;;;;;;;6.43;4.68;;;18.20;99.90;;;;;;4994080;28;20217;-74
2021/09/17 05:01:09;;;;;;;4.78;4.38;;;18.10;99.90;;;;;;4992623;28;20588;-74
2021/09/17 05:03:36;;;;;;;4.97;4.47;;;18.00;99.90;;;;;;4993559;28;20213;-74
2021/09/17 05:06:05;;;;;;;4.82;4.40;;;18.00;99.90;;;;;;4991849;28;20212;-74
2021/09/17 05:08:32;;;;;;;5.85;4.15;;;18.00;99.90;;;;;;4990626;28;20208;-74
2021/09/17 05:10:59;;;;;;;4.35;3.95;;;18.00;99.90;;;;;;4992996;28;20213;-74
2021/09/17 05:13:26;;;;;;;10.00;4.82;;;18.00;99.90;;;;;;4993085;28;20608;-72
2021/09/17 05:15:53;;;;;;;5.65;5.20;;;18.00;99.90;;;;;;4993085;28;20220;-72
2021/09/17 05:18:20;;;;;;;5.40;4.70;;;17.90;99.90;;;;;;4993209;28;20216;-73
2021/09/17 05:20:47;;;;;;;5.03;4.53;;;17.90;99.90;;;;;;4994177;28;20212;-75
2021/09/17 05:23:15;;;;;;;4.70;4.30;;;17.90;99.90;;;;;;4993480;28;20208;-74
2021/09/17 05:25:42;;;;;;;5.72;5.00;;;17.90;99.90;;;;;;4992991;28;20204;-73
2021/09/17 05:28:10;;;;;;;5.32;4.80;;;17.90;99.90;;;;;;4991658;28;20212;-75
2021/09/17 05:30:37;;;;;;;5.82;4.70;;;17.90;99.90;;;;;;4991328;28;20208;-74
2021/09/17 05:33:05;;;;;;;5.25;4.57;;;17.80;99.90;;;;;;4992503;28;20213;-76
2021/09/17 05:35:32;;;;;;;4.65;4.22;;;17.90;99.90;;;;;;4992664;28;20647;-76
2021/09/17 05:38:00;;;;;;;5.20;4.75;;;17.90;99.90;;;;;;4992073;28;20216;-75
2021/09/17 05:40:28;;;;;;;5.47;4.97;;;18.00;99.90;;;;;;4990783;28;20603;-74
2021/09/17 05:42:55;;;;;;;4.60;4.13;;;18.00;99.90;;;;;;4992157;28;20213;-75
2021/09/17 05:45:22;;;;;;;7.45;4.75;;;18.10;99.90;;;;;;4992640;28;20208;-74
2021/09/17 05:47:49;;;;;;;4.93;4.50;;;18.00;99.90;;;;;;4992243;28;20618;-73
2021/09/17 05:50:17;;;;;;;4.97;4.47;;;17.90;99.90;;;;;;4991279;28;20211;-73
2021/09/17 05:52:44;;;;;;;6.07;4.30;;;18.00;99.90;;;;;;4982815;28;20213;-74
2021/09/17 05:55:12;;;;;;;9.35;5.35;;;18.00;99.90;;;;;;4988378;28;20253;-78
2021/09/17 05:57:40;;;;;;;6.40;4.82;;;18.00;99.90;;;;;;4986128;28;20223;-76
2021/09/17 06:00:09;;;;;;;5.30;4.82;;;18.00;99.90;;;;;;4976755;28;20669;-76
2021/09/17 06:02:37;;;;;;;5.80;4.90;;;18.00;99.90;;;;;;4992018;28;20211;-79
2021/09/17 06:05:04;;;;;;;11.60;5.63;;;18.00;99.90;;;;;;4991652;28;20205;-77
2021/09/17 06:07:31;;;;;;;7.68;4.80;;;18.00;99.90;;;;;;4982468;28;20206;-74
2021/09/17 06:10:00;;;;;;;6.65;5.30;;;18.00;99.90;;;;;;4988908;28;20208;-72
2021/09/17 06:12:28;;;;;;;5.70;5.05;;;18.00;99.90;;;;;;4987192;28;20669;-77
2021/09/17 06:14:56;;;;;;;6.22;4.88;;;18.00;99.90;;;;;;4990280;28;20233;-76
2021/09/17 06:17:23;;;;;;;5.40;4.90;;;18.00;99.90;;;;;;4991339;28;20205;-73
2021/09/17 06:19:51;;;;;;;5.97;5.38;;;17.90;99.90;;;;;;4992396;28;20237;-72
2021/09/17 06:22:18;;;;;;;5.15;4.75;;;18.00;99.90;;;;;;4991868;28;20284;-73
2021/09/17 06:24:45;;;;;;;6.82;5.78;;;18.00;99.90;;;;;;4992342;28;20208;-71
2021/09/17 06:27:12;;;;;;;14.27;6.22;;;18.00;99.90;;;;;;4991146;28;20641;-77
2021/09/17 06:29:39;;;;;;;7.85;5.50;;;17.90;99.90;;;;;;4992024;28;20213;-75
2021/09/17 06:32:08;;;;;;;8.20;5.25;;;17.90;99.90;;;;;;4991734;28;20219;-75
2021/09/17 06:34:35;;;;;;;6.28;5.47;;;17.90;99.90;;;;;;4991943;28;20244;-73
2021/09/17 06:37:02;;;;;;;8.13;5.43;;;18.00;99.90;;;;;;4991670;28;20212;-73
2021/09/17 06:39:31;;;;;;;8.05;5.13;;;18.10;99.90;;;;;;4991974;28;20205;-73
2021/09/17 06:41:59;;;;;;;8.77;5.30;;;18.10;99.90;;;;;;4991486;28;20209;-75
2021/09/17 06:44:26;;;;;;;5.57;5.05;;;18.30;99.90;;;;;;4991410;28;20672;-76
2021/09/17 06:46:53;;;;;;;6.00;5.40;;;18.50;99.90;;;;;;4991373;28;20672;-76
2021/09/17 06:49:22;;;;;;;6.45;5.82;;;18.60;99.90;;;;;;4991150;28;20212;-73
2021/09/17 06:51:49;;;;;;;10.25;5.90;;;18.70;99.90;;;;;;4991618;28;20621;-73
2021/09/17 06:54:16;;;;;;;8.88;5.93;;;18.70;99.90;;;;;;4991541;28;20227;-72
2021/09/17 06:56:43;;;;;;;7.82;6.90;;;18.80;99.90;;;;;;4991735;28;20205;-78
2021/09/17 06:59:10;;;;;;;5.88;4.90;;;18.80;99.90;;;;;;4990896;28;20226;-75
2021/09/17 07:01:38;;;;;;;6.97;6.22;;;18.70;99.90;;;;;;4991508;28;20201;-77
2021/09/17 07:04:05;;;;;;;7.72;5.05;;;18.60;99.90;;;;;;4987519;28;20213;-75
2021/09/17 07:06:33;;;;;;;7.13;5.78;;;18.70;99.90;;;;;;4989555;28;20695;-79
2021/09/17 07:09:00;;;;;;;8.18;6.45;;;18.80;99.90;;;;;;4989553;28;20205;-74
2021/09/17 07:11:28;;;;;;;10.27;6.00;;;18.90;99.90;;;;;;4991234;28;20213;-76
2021/09/17 07:13:55;;;;;;;8.00;5.38;;;18.80;99.90;;;;;;4989985;28;20236;-74
2021/09/17 07:16:22;;;;;;;10.18;5.78;;;18.80;99.90;;;;;;4991428;28;20208;-72
2021/09/17 07:18:49;;;;;;;6.40;5.80;;;18.90;99.90;;;;;;4991583;28;20216;-71
2021/09/17 07:21:16;;;;;;;7.43;5.28;;;18.90;99.90;;;;;;4990597;28;20550;-79
2021/09/17 07:23:44;;;;;;;6.68;5.40;;;19.00;99.90;;;;;;4990855;28;20595;-79
2021/09/17 07:26:12;;;;;;;7.35;5.85;;;18.80;99.90;;;;;;4990602;28;20428;-69
2021/09/17 07:28:39;;;;;;;9.48;5.97;;;18.90;99.90;;;;;;4990324;28;20220;-71
2021/09/17 07:31:06;;;;;;;6.65;6.05;;;19.00;99.90;;;;;;4990604;28;20212;-80
2021/09/17 07:33:33;;;;;;;9.15;7.05;;;19.00;99.90;;;;;;4990826;28;20244;-70
2021/09/17 07:36:00;;;;;;;6.90;5.50;;;18.90;99.90;;;;;;4990614;28;20247;-70
2021/09/17 07:38:27;;;;;;;7.93;6.35;;;19.00;99.90;;;;;;4991143;28;20220;-73
2021/09/17 07:40:55;;;;;;;6.85;5.80;;;19.30;99.90;;;;;;4990622;28;20212;-74
2021/09/17 07:43:22;;;;;;;10.73;5.13;;;19.40;99.90;;;;;;4990897;28;20217;-77
2021/09/17 07:45:50;;;;;;;6.43;5.82;;;19.50;99.90;;;;;;4984432;28;20884;-72
2021/09/17 07:48:17;;;;;;;11.63;5.05;;;19.30;99.90;;;;;;4987599;28;20204;-73
2021/09/17 07:50:44;;;;;;;7.75;5.00;;;19.30;99.90;;;;;;4990992;28;20209;-71
2021/09/17 07:53:11;;;;;;;7.07;5.40;;;19.50;99.90;;;;;;4988683;28;20216;-74
2021/09/17 07:55:38;;;;;;;7.13;5.35;;;19.50;99.90;;;;;;4990359;28;20244;-76
2021/09/17 07:58:07;;;;;;;23.85;8.52;;;19.70;99.90;;;;;;4990062;28;20205;-74
2021/09/17 08:00:34;;;;;;;11.52;6.97;;;19.80;99.90;;;;;;4989927;28;20217;-76
2021/09/17 08:03:04;;;;;;;7.13;5.70;;;19.80;99.90;;;;;;4989633;28;20205;-77
2021/09/17 08:05:31;;;;;;;7.15;6.07;;;20.00;99.90;;;;;;4986649;28;20267;-77
2021/09/17 08:07:58;;;;;;;5.80;4.95;;;20.00;99.90;;;;;;4988892;28;20208;-77
2021/09/17 08:10:25;;;;;;;6.55;5.90;;;20.10;99.90;;;;;;4989796;28;20208;-70
2021/09/17 08:12:52;;;;;;;6.93;5.97;;;20.30;99.90;;;;;;4990088;28;20201;-73
2021/09/17 08:15:20;;;;;;;5.97;5.25;;;20.30;99.90;;;;;;4990654;28;20239;-69
2021/09/17 08:17:47;;;;;;;7.05;5.80;;;20.20;99.90;;;;;;4990270;28;20213;-69
2021/09/17 08:20:15;;;;;;;6.57;5.97;;;19.80;99.90;;;;;;4991313;28;20213;-75
2021/09/17 08:22:42;;;;;;;7.90;6.43;;;19.50;99.90;;;;;;4992970;28;20213;-71
2021/09/17 08:25:10;;;;;;;5.57;5.05;;;19.80;99.90;;;;;;4992739;28;20595;-70
2021/09/17 08:27:39;;;;;;;5.65;5.07;;;20.00;99.90;;;;;;4993129;28;20201;-74
2021/09/17 08:30:08;;;;;;;5.70;4.88;;;20.40;99.90;;;;;;4987788;28;20208;-73
2021/09/17 08:32:38;;;;;;;6.07;5.47;;;20.80;99.90;;;;;;4994035;28;20584;-74
2021/09/17 08:35:07;;;;;;;5.22;4.60;;;20.50;99.90;;;;;;4993559;28;20229;-69
2021/09/17 08:37:34;;;;;;;12.18;6.00;;;20.40;99.90;;;;;;4994019;28;20204;-75
2021/09/17 08:40:01;;;;;;;7.45;5.63;;;20.50;99.90;;;;;;4993674;28;20212;-76
2021/09/17 08:42:29;;;;;;;5.88;4.93;;;20.50;99.90;;;;;;4993720;28;20213;-77
2021/09/17 08:44:56;;;;;;;6.90;5.63;;;20.30;99.90;;;;;;4993820;28;20236;-67
2021/09/17 08:47:24;;;;;;;7.13;6.25;;;19.80;99.90;;;;;;4993956;28;20209;-75
2021/09/17 08:49:54;;;;;;;6.75;4.88;;;19.90;99.90;;;;;;4990000;28;20783;-71
2021/09/17 08:52:21;;;;;;;7.32;5.75;;;20.00;99.90;;;;;;4991365;28;20224;-72
2021/09/17 08:54:49;;;;;;;11.23;4.78;;;19.90;99.90;;;;;;4992630;28;20236;-70
2021/09/17 08:57:16;;;;;;;5.97;5.05;;;20.50;99.90;;;;;;4991031;28;20256;-68
2021/09/17 08:59:44;;;;;;;5.05;4.57;;;20.80;99.90;;;;;;4987781;28;20205;-72
2021/09/17 09:02:23;;;;;;;7.28;5.40;;;21.20;99.90;;;;;;4991229;28;20217;-78
2021/09/17 09:04:59;;;;;;;7.97;6.30;;;21.70;99.90;;;;;;4990070;28;20249;-69
2021/09/17 09:07:28;;;;;;;4.85;4.30;;;21.50;99.90;;;;;;4989628;28;20201;-71
2021/09/17 09:09:55;;;;;;;6.82;5.40;;;21.40;99.90;;;;;;4989015;28;20224;-77
2021/09/17 09:12:25;;;;;;;5.90;4.53;;;22.10;99.90;;;;;;4989791;28;20224;-72
2021/09/17 09:15:13;;;;;;;7.75;4.85;;;22.00;99.90;;;;;;4990834;28;20682;-71
2021/09/17 09:17:40;;;;;;;8.52;5.80;;;21.20;99.90;;;;;;4991083;28;20213;-72
2021/09/17 09:20:28;;;;;;;6.90;5.53;;;21.10;99.90;;;;;;4991536;28;20216;-72
2021/09/17 09:23:10;;;;;;;5.55;4.28;;;21.40;99.90;;;;;;4988493;28;20219;-69
2021/09/17 09:25:53;;;;;;;6.05;5.07;;;22.00;99.90;;;;;;4981806;28;20692;-77
2021/09/17 09:28:21;;;;;;;6.30;5.70;;;22.60;99.90;;;;;;4983012;28;20239;-69
2021/09/17 09:30:48;;;;;;;5.43;4.40;;;22.80;99.90;;;;;;4989287;28;20213;-75
2021/09/17 09:33:23;;;;;;;7.18;5.68;;;23.20;99.90;;;;;;4990353;28;20683;-76
2021/09/17 09:35:59;;;;;;;6.45;5.28;;;22.70;99.90;;;;;;4991542;28;20243;-79
2021/09/17 09:38:30;;;;;;;5.05;4.65;;;22.00;99.90;;;;;;4989607;28;20212;-70
2021/09/17 09:40:59;;;;;;;5.82;4.40;;;21.90;99.90;;;;;;4987797;28;20209;-72
2021/09/17 09:43:31;;;;;;;5.50;5.00;;;21.60;99.90;;;;;;4985135;28;20244;-71
2021/09/17 09:46:23;;;;;;;7.40;4.88;;;21.50;99.90;;;;;;4980961;28;20216;-82
2021/09/17 09:49:08;;;;;;;4.82;4.40;;;21.50;99.90;;;;;;4980416;28;20217;-72
2021/09/17 09:54:25;;;;;;;4.97;4.18;;;21.60;99.90;;;;;;5103940;27;20560;-70
2021/09/17 09:56:54;;;;;;;5.10;3.63;;;21.60;99.90;;;;;;5095440;28;20202;-72
2021/09/17 09:59:25;;;;;;;5.65;4.13;;;21.90;99.90;;;;;;5095299;28;20737;-74
2021/09/17 10:01:54;;;;;;;5.45;3.30;;;22.30;99.90;;;;;;5088181;28;20210;-69
2021/09/17 10:04:23;;;;;;;5.18;3.70;;;24.10;99.90;;;;;;5097011;28;20257;-69
2021/09/17 10:07:01;;;;;;;4.28;3.65;;;25.30;99.90;;;;;;5092843;28;20209;-69
2021/09/17 10:09:29;;;;;;;28.27;23.60;;;26.40;99.90;;;;;;5099089;28;20570;-78
2021/09/17 10:11:59;;;;;;;23.10;19.65;;;25.90;99.90;;;;;;5095700;28;20581;-69
2021/09/17 10:14:29;;;;;;;5.88;5.22;;;24.50;99.90;;;;;;5091617;28;20216;-69
2021/09/17 10:16:58;;;;;;;10.15;4.03;;;24.10;99.90;;;;;;5093051;28;20275;-75
2021/09/17 10:19:26;;;;;;;5.97;4.38;;;24.70;99.90;;;;;;5092941;28;20212;-76
2021/09/17 10:21:59;;;;;;;4.35;3.92;;;24.80;99.90;;;;;;5087982;28;20209;-78
2021/09/17 10:24:39;;;;;;;3.85;3.55;;;26.10;99.90;;;;;;5087356;28;20216;-70
2021/09/17 10:27:09;;;;;;;7.00;4.03;;;24.00;99.90;;;;;;5086857;28;20250;-70
2021/09/17 10:29:39;;;;;;;4.60;4.20;;;23.10;99.90;;;;;;5087604;28;20206;-79
2021/09/17 10:32:09;;;;;;;4.05;3.40;;;22.80;99.90;;;;;;5089206;28;20689;-78
2021/09/17 10:34:40;;;;;;;4.60;3.55;;;22.60;99.90;;;;;;5087526;28;20216;-69
2021/09/17 10:37:08;;;;;;;4.70;4.30;;;22.70;99.90;;;;;;5086540;28;20205;-68
2021/09/17 10:39:37;;;;;;;4.82;4.25;;;22.50;99.90;;;;;;5087475;28;20210;-69
2021/09/17 10:42:13;;;;;;;3.35;3.05;;;21.90;99.90;;;;;;5086865;28;20237;-69
2021/09/17 10:45:20;;;;;;;3.75;3.42;;;21.90;99.90;;;;;;5079574;28;20205;-69
2021/09/17 10:48:00;;;;;;;4.53;4.22;;;22.20;99.90;;;;;;5087226;28;20205;-71
2021/09/17 10:50:55;;;;;;;4.97;3.70;;;22.20;99.90;;;;;;5091525;28;20249;-74
2021/09/17 10:53:59;;;;;;;3.20;2.90;;;22.00;99.90;;;;;;5063591;28;20237;-70
2021/09/17 10:56:28;;;;;;;4.80;3.42;;;22.30;99.90;;;;;;5081896;28;20209;-74
2021/09/17 10:59:14;;;;;;;3.60;3.30;;;22.60;99.90;;;;;;5083611;28;20206;-80
2021/09/17 11:01:53;;;;;;;2.88;2.60;;;22.30;99.90;;;;;;5089015;28;20249;-72
2021/09/17 11:04:22;;;;;;;3.00;2.65;;;22.50;99.90;;;;;;5078158;28;20260;-73
2021/09/17 11:06:50;;;;;;;3.75;3.45;;;22.20;99.90;;;;;;5072938;28;20206;-77
2021/09/17 11:09:42;;;;;;;6.45;3.60;;;22.20;99.90;;;;;;5066770;28;20562;-70
2021/09/17 11:12:20;;;;;;;3.63;2.63;;;22.60;99.90;;;;;;5073942;28;20217;-71
2021/09/17 11:15:02;;;;;;;2.53;2.30;;;22.60;99.90;;;;;;5070710;28;20202;-73
2021/09/17 11:17:37;;;;;;;2.97;2.60;;;22.70;99.90;;;;;;5067958;28;20213;-75
2021/09/17 11:20:05;;;;;;;2.42;2.22;;;22.50;99.90;;;;;;5073132;28;20205;-73
2021/09/17 11:22:48;;;;;;;4.13;3.28;;;21.90;99.90;;;;;;5076831;28;20277;-73
2021/09/17 11:25:21;;;;;;;3.50;3.20;;;22.00;99.90;;;;;;5066926;28;20206;-72
2021/09/17 11:27:48;;;;;;;2.92;2.65;;;22.40;99.90;;;;;;5060569;28;20203;-73
2021/09/17 11:30:16;;;;;;;5.60;3.15;;;22.20;99.90;;;;;;5072178;28;20577;-76
2021/09/17 11:32:43;;;;;;;2.38;2.17;;;22.40;99.90;;;;;;5067786;28;20237;-75
2021/09/17 11:35:12;;;;;;;4.15;2.53;;;22.70;99.90;;;;;;5071110;28;20218;-74
2021/09/17 11:37:39;;;;;;;3.55;2.65;;;22.90;99.90;;;;;;5071486;28;20301;-72
2021/09/17 11:40:08;;;;;;;2.92;2.65;;;22.70;99.90;;;;;;5071276;28;20206;-72
2021/09/17 11:42:37;;;;;;;4.43;1.70;;;22.70;99.90;;;;;;5072059;28;20691;-71
2021/09/17 11:45:12;;;;;;;2.22;2.03;;;22.70;99.90;;;;;;5071851;28;20202;-72
2021/09/17 11:47:39;;;;;;;2.20;1.98;;;22.70;99.90;;;;;;5072122;28;20208;-76
2021/09/17 11:50:13;;;;;;;2.72;2.50;;;22.60;99.90;;;;;;5071815;28;20214;-79
2021/09/17 11:52:42;;;;;;;3.17;2.92;;;22.80;99.90;;;;;;5071798;28;20213;-78
2021/09/17 11:55:11;;;;;;;3.65;3.13;;;22.30;99.90;;;;;;5071937;28;20210;-73
2021/09/17 11:57:41;;;;;;;2.95;2.65;;;22.40;99.90;;;;;;5071366;28;20259;-76
2021/09/17 12:00:10;;;;;;;3.38;2.85;;;22.70;99.90;;;;;;5071492;28;20587;-79
2021/09/17 12:02:37;;;;;;;3.28;1.80;;;22.80;99.90;;;;;;5072037;28;20585;-72
2021/09/17 12:05:07;;;;;;;3.67;1.95;;;23.00;99.90;;;;;;5069297;28;20213;-72
2021/09/17 12:07:36;;;;;;;4.45;2.80;;;23.30;99.90;;;;;;5071981;28;20209;-75
2021/09/17 12:10:10;;;;;;;3.63;2.63;;;23.40;99.90;;;;;;5071730;28;20214;-72
2021/09/17 12:12:42;;;;;;;7.03;3.38;;;23.30;99.90;;;;;;5072119;28;20202;-80
2021/09/17 12:15:11;;;;;;;3.38;2.97;;;23.50;99.90;;;;;;5070918;28;20214;-78
2021/09/17 12:17:55;;;;;;;3.15;2.88;;;23.60;99.90;;;;;;5071314;28;20206;-76
2021/09/17 12:20:23;;;;;;;3.50;2.85;;;23.70;99.90;;;;;;5071590;28;20205;-79
2021/09/17 12:22:58;;;;;;;4.63;3.08;;;23.70;99.90;;;;;;5071930;28;20214;-72
2021/09/17 12:25:31;;;;;;;6.18;2.60;;;23.70;99.90;;;;;;5071635;28;20213;-76
2021/09/17 12:28:02;;;;;;;10.02;3.33;;;23.70;99.90;;;;;;5071201;28;20672;-76
2021/09/17 12:30:32;;;;;;;4.80;3.10;;;23.70;99.90;;;;;;5071405;28;20206;-74
2021/09/17 12:33:11;;;;;;;5.47;2.67;;;23.40;99.90;;;;;;5071098;28;20665;-71
2021/09/17 12:35:39;;;;;;;4.90;2.70;;;23.20;99.90;;;;;;5071242;28;20221;-76
2021/09/17 12:38:09;;;;;;;6.40;3.67;;;23.00;99.90;;;;;;5071097;28;20198;-73
2021/09/17 12:40:39;;;;;;;6.47;3.15;;;23.00;99.90;;;;;;5071228;28;20214;-77
2021/09/17 12:43:11;;;;;;;14.57;4.38;;;23.30;99.90;;;;;;5070777;28;20604;-77
2021/09/17 12:45:41;;;;;;;2.28;2.08;;;23.80;99.90;;;;;;5071019;28;20267;-72
2021/09/17 12:48:09;;;;;;;4.13;2.45;;;23.90;99.90;;;;;;5070720;28;20209;-74
2021/09/17 12:50:38;;;;;;;2.42;2.00;;;24.00;99.90;;;;;;5071147;28;20217;-72
2021/09/17 12:53:11;;;;;;;3.78;2.53;;;23.80;99.90;;;;;;5070765;28;20214;-76
2021/09/17 12:55:39;;;;;;;2.55;2.35;;;23.50;99.90;;;;;;5071397;28;20241;-76
2021/09/17 12:58:10;;;;;;;4.78;2.67;;;23.30;99.90;;;;;;5070417;28;20210;-74